createdAt,value
2017-04-16T00:00:04.208Z,5.53
2017-04-16T00:00:44.700Z,5.57
2017-04-16T00:01:25.189Z,5.51
2017-04-16T00:02:05.658Z,5.54
2017-04-16T00:02:46.156Z,5.5
2017-04-16T00:03:26.701Z,5.56
2017-04-16T00:04:07.177Z,5.56
2017-04-16T00:04:47.675Z,5.57
2017-04-16T00:05:28.162Z,5.59
2017-04-16T00:06:08.638Z,5.54
2017-04-16T00:06:49.126Z,5.51
2017-04-16T00:07:29.594Z,5.53
2017-04-16T00:08:10.074Z,5.54
2017-04-16T00:08:50.591Z,5.59
2017-04-16T00:09:31.049Z,5.62
2017-04-16T00:10:11.590Z,5.62
2017-04-16T00:10:52.071Z,5.53
2017-04-16T00:11:32.567Z,5.51
2017-04-16T00:12:13.064Z,5.51
2017-04-16T00:12:53.572Z,5.59
2017-04-16T00:13:34.042Z,5.59
2017-04-16T00:14:14.536Z,5.51
2017-04-16T00:14:55.009Z,5.54
2017-04-16T00:15:35.480Z,5.59
2017-04-16T00:16:15.957Z,5.57
2017-04-16T00:16:56.478Z,5.53
2017-04-16T00:17:36.962Z,5.51
2017-04-16T00:18:17.593Z,5.57
2017-04-16T00:18:58.058Z,5.57
2017-04-16T00:19:38.544Z,5.54
2017-04-16T00:20:19.049Z,5.56
2017-04-16T00:20:59.554Z,5.57
2017-04-16T00:21:40.036Z,5.61
2017-04-16T00:22:20.519Z,5.62
2017-04-16T00:23:00.993Z,5.54
2017-04-16T00:23:41.491Z,5.57
2017-04-16T00:24:21.992Z,5.56
2017-04-16T00:25:02.512Z,5.54
2017-04-16T00:25:42.981Z,5.59
2017-04-16T00:26:23.489Z,5.54
2017-04-16T00:27:03.953Z,5.62
2017-04-16T00:27:44.436Z,5.57
2017-04-16T00:28:24.954Z,5.57
2017-04-16T00:29:05.439Z,5.57
2017-04-16T00:29:45.918Z,5.51
2017-04-16T00:30:26.449Z,5.54
2017-04-16T00:31:06.919Z,5.46
2017-04-16T00:31:47.391Z,5.54
2017-04-16T00:32:27.865Z,5.47
2017-04-16T00:33:08.371Z,5.48
2017-04-16T00:33:48.851Z,5.46
2017-04-16T00:34:29.352Z,5.44
2017-04-16T00:35:09.842Z,5.39
2017-04-16T00:35:50.325Z,5.48
2017-04-16T00:36:30.810Z,5.41
2017-04-16T00:37:11.298Z,5.43
2017-04-16T00:37:51.747Z,5.44
2017-04-16T00:38:32.265Z,5.39
2017-04-16T00:39:12.730Z,5.39
2017-04-16T00:39:53.245Z,5.41
2017-04-16T00:40:33.732Z,5.39
2017-04-16T00:41:14.248Z,5.32
2017-04-16T00:41:54.734Z,5.35
2017-04-16T00:42:35.285Z,5.28
2017-04-16T00:43:15.738Z,5.17
2017-04-16T00:43:56.278Z,5.17
2017-04-16T00:44:36.746Z,5.12
2017-04-16T00:45:17.234Z,5.18
2017-04-16T00:45:57.678Z,5.04
2017-04-16T00:46:38.178Z,5.1
2017-04-16T00:47:18.601Z,4.97
2017-04-16T00:47:59.066Z,4.99
2017-04-16T00:48:39.556Z,5
2017-04-16T00:49:20.050Z,4.94
2017-04-16T00:50:00.557Z,4.9
2017-04-16T00:50:41.037Z,4.97
2017-04-16T00:51:21.533Z,4.89
2017-04-16T00:52:01.997Z,4.89
2017-04-16T00:52:42.488Z,4.87
2017-04-16T00:53:22.971Z,4.92
2017-04-16T00:54:03.439Z,4.94
2017-04-16T00:54:43.964Z,4.87
2017-04-16T00:55:24.401Z,4.9
2017-04-16T00:56:04.898Z,5
2017-04-16T00:56:45.395Z,5.02
2017-04-16T00:57:25.860Z,4.96
2017-04-16T00:58:06.386Z,4.97
2017-04-16T00:58:46.865Z,5
2017-04-16T00:59:27.378Z,5
2017-04-16T01:00:07.840Z,5.08
2017-04-16T01:01:45.812Z,5.11
2017-04-16T01:02:26.222Z,5.15
2017-04-16T01:03:06.620Z,5.2
2017-04-16T01:03:47.100Z,5.18
2017-04-16T01:04:27.592Z,5.15
2017-04-16T01:05:08.092Z,5.23
2017-04-16T01:05:48.585Z,5.18
2017-04-16T01:06:29.084Z,5.26
2017-04-16T01:07:09.539Z,5.28
2017-04-16T01:07:50.020Z,5.23
2017-04-16T01:08:30.496Z,5.32
2017-04-16T01:09:10.976Z,5.28
2017-04-16T01:09:51.469Z,5.32
2017-04-16T01:10:31.973Z,5.33
2017-04-16T01:11:12.456Z,5.26
2017-04-16T01:11:52.949Z,5.39
2017-04-16T01:12:33.425Z,5.33
2017-04-16T01:13:13.938Z,5.36
2017-04-16T01:13:54.431Z,5.46
2017-04-16T01:14:34.867Z,5.43
2017-04-16T01:15:15.344Z,5.33
2017-04-16T01:15:55.912Z,5.38
2017-04-16T01:17:43.820Z,5.56
2017-04-16T01:18:24.334Z,5.48
2017-04-16T01:19:04.757Z,5.5
2017-04-16T01:19:45.263Z,5.59
2017-04-16T01:20:25.704Z,5.54
2017-04-16T01:21:06.178Z,5.51
2017-04-16T01:21:46.641Z,5.66
2017-04-16T01:22:27.151Z,5.62
2017-04-16T01:23:07.620Z,5.61
2017-04-16T01:23:48.137Z,5.61
2017-04-16T01:24:28.614Z,5.66
2017-04-16T01:25:09.089Z,5.66
2017-04-16T01:25:49.570Z,5.64
2017-04-16T01:26:30.080Z,5.59
2017-04-16T01:27:10.576Z,5.68
2017-04-16T01:27:51.050Z,5.68
2017-04-16T01:28:31.559Z,5.68
2017-04-16T01:29:12.037Z,5.72
2017-04-16T01:29:52.511Z,5.73
2017-04-16T01:30:32.968Z,5.71
2017-04-16T01:31:13.486Z,5.73
2017-04-16T01:31:53.934Z,5.69
2017-04-16T01:32:34.456Z,5.69
2017-04-16T01:33:14.936Z,5.73
2017-04-16T01:33:55.419Z,5.72
2017-04-16T01:34:35.885Z,5.69
2017-04-16T01:35:16.387Z,5.65
2017-04-16T01:35:56.923Z,5.65
2017-04-16T01:36:37.402Z,5.61
2017-04-16T01:37:17.866Z,5.65
2017-04-16T01:37:58.341Z,5.62
2017-04-16T01:38:38.806Z,5.79
2017-04-16T01:39:19.283Z,5.62
2017-04-16T01:39:59.796Z,5.61
2017-04-16T01:40:40.262Z,5.64
2017-04-16T01:41:20.734Z,5.62
2017-04-16T01:42:01.206Z,5.57
2017-04-16T01:42:41.695Z,5.64
2017-04-16T01:43:22.197Z,5.68
2017-04-16T01:44:02.677Z,5.62
2017-04-16T01:44:43.197Z,5.66
2017-04-16T01:45:23.612Z,5.64
2017-04-16T01:46:04.073Z,5.64
2017-04-16T01:46:44.549Z,5.62
2017-04-16T01:47:25.050Z,5.62
2017-04-16T01:48:05.539Z,5.64
2017-04-16T01:48:46.033Z,5.56
2017-04-16T01:49:26.532Z,5.62
2017-04-16T01:50:06.991Z,5.62
2017-04-16T01:50:47.482Z,5.68
2017-04-16T01:51:27.940Z,5.62
2017-04-16T01:52:08.424Z,5.62
2017-04-16T01:52:48.906Z,5.56
2017-04-16T01:53:29.373Z,5.68
2017-04-16T01:54:09.842Z,5.68
2017-04-16T01:54:50.309Z,5.61
2017-04-16T01:55:30.763Z,5.54
2017-04-16T01:56:11.240Z,5.54
2017-04-16T01:56:51.782Z,5.61
2017-04-16T01:57:32.275Z,5.61
2017-04-16T01:58:12.750Z,5.54
2017-04-16T01:58:53.214Z,5.56
2017-04-16T01:59:33.718Z,5.57
2017-04-16T02:00:14.208Z,5.59
2017-04-16T02:00:54.676Z,5.54
2017-04-16T02:01:35.162Z,5.51
2017-04-16T02:02:15.638Z,5.56
2017-04-16T02:02:56.127Z,5.47
2017-04-16T02:03:36.645Z,5.54
2017-04-16T02:04:17.151Z,5.56
2017-04-16T02:04:57.651Z,5.53
2017-04-16T02:05:38.157Z,5.54
2017-04-16T02:06:18.604Z,5.5
2017-04-16T02:06:59.099Z,5.56
2017-04-16T02:07:39.583Z,5.53
2017-04-16T02:08:20.058Z,5.53
2017-04-16T02:09:00.587Z,5.53
2017-04-16T02:09:41.062Z,5.56
2017-04-16T02:10:21.621Z,5.57
2017-04-16T02:11:02.105Z,5.59
2017-04-16T02:11:42.614Z,5.66
2017-04-16T02:12:23.079Z,5.61
2017-04-16T02:13:03.565Z,5.62
2017-04-16T02:13:44.060Z,5.64
2017-04-16T02:14:24.542Z,5.64
2017-04-16T02:15:05.008Z,5.64
2017-04-16T02:15:45.527Z,5.57
2017-04-16T02:16:26.005Z,5.62
2017-04-16T02:17:06.506Z,5.61
2017-04-16T02:17:46.991Z,5.59
2017-04-16T02:18:27.510Z,5.53
2017-04-16T02:19:07.978Z,5.64
2017-04-16T02:19:48.445Z,5.56
2017-04-16T02:20:28.933Z,5.56
2017-04-16T02:21:09.432Z,5.56
2017-04-16T02:21:49.902Z,5.61
2017-04-16T02:22:30.411Z,5.56
2017-04-16T02:23:10.850Z,5.56
2017-04-16T02:25:04.022Z,5.57
2017-04-16T02:25:44.337Z,5.56
2017-04-16T02:26:24.838Z,5.5
2017-04-16T02:27:05.316Z,5.68
2017-04-16T02:27:45.790Z,5.65
2017-04-16T02:28:26.244Z,5.62
2017-04-16T02:29:06.784Z,5.68
2017-04-16T02:29:47.242Z,5.61
2017-04-16T02:30:27.857Z,5.75
2017-04-16T02:31:08.348Z,5.68
2017-04-16T02:31:48.815Z,5.73
2017-04-16T02:32:29.278Z,5.71
2017-04-16T02:33:09.787Z,5.8
2017-04-16T02:33:50.244Z,5.72
2017-04-16T02:34:30.718Z,5.68
2017-04-16T02:35:11.205Z,5.79
2017-04-16T02:35:51.707Z,5.65
2017-04-16T02:36:32.160Z,5.73
2017-04-16T02:37:12.635Z,5.73
2017-04-16T02:37:53.139Z,5.75
2017-04-16T02:38:33.648Z,5.69
2017-04-16T02:39:14.108Z,5.71
2017-04-16T02:39:54.587Z,5.69
2017-04-16T02:40:35.072Z,5.64
2017-04-16T02:41:15.543Z,5.73
2017-04-16T02:41:56.019Z,5.71
2017-04-16T02:42:36.506Z,5.72
2017-04-16T02:43:16.992Z,5.66
2017-04-16T02:43:57.443Z,5.56
2017-04-16T02:44:38.012Z,5.64
2017-04-16T02:45:18.509Z,5.66
2017-04-16T02:45:59.029Z,5.62
2017-04-16T02:46:39.486Z,5.57
2017-04-16T02:47:20.011Z,5.64
2017-04-16T02:48:00.453Z,5.57
2017-04-16T02:48:40.930Z,5.59
2017-04-16T02:49:21.443Z,5.54
2017-04-16T02:50:01.895Z,5.53
2017-04-16T02:50:42.366Z,5.62
2017-04-16T02:51:22.845Z,5.61
2017-04-16T02:52:03.290Z,5.62
2017-04-16T02:52:43.803Z,5.65
2017-04-16T02:53:24.262Z,5.65
2017-04-16T02:54:04.763Z,5.64
2017-04-16T02:54:45.239Z,5.57
2017-04-16T02:55:25.708Z,5.56
2017-04-16T02:56:06.187Z,5.59
2017-04-16T02:56:46.695Z,5.62
2017-04-16T02:57:27.173Z,5.65
2017-04-16T02:58:07.671Z,5.62
2017-04-16T02:58:48.146Z,5.56
2017-04-16T02:59:28.603Z,5.53
2017-04-16T03:00:09.052Z,5.53
2017-04-16T03:00:49.561Z,5.53
2017-04-16T03:01:30.045Z,5.54
2017-04-16T03:02:10.516Z,5.53
2017-04-16T03:02:50.984Z,5.51
2017-04-16T03:03:31.513Z,5.48
2017-04-16T03:04:12.019Z,5.56
2017-04-16T03:04:52.533Z,5.5
2017-04-16T03:05:33.038Z,5.53
2017-04-16T03:06:13.497Z,5.57
2017-04-16T03:06:53.986Z,5.5
2017-04-16T03:07:34.420Z,5.48
2017-04-16T03:08:14.916Z,5.44
2017-04-16T03:08:55.375Z,5.51
2017-04-16T03:09:35.871Z,5.53
2017-04-16T03:10:16.376Z,5.51
2017-04-16T03:10:56.945Z,5.53
2017-04-16T03:11:37.411Z,5.53
2017-04-16T03:12:17.901Z,5.44
2017-04-16T03:12:58.415Z,5.44
2017-04-16T03:13:38.838Z,5.47
2017-04-16T03:14:19.323Z,5.48
2017-04-16T03:14:59.814Z,5.48
2017-04-16T03:15:40.275Z,5.44
2017-04-16T03:16:20.806Z,5.38
2017-04-16T03:17:01.247Z,5.44
2017-04-16T03:17:41.798Z,5.48
2017-04-16T03:18:22.294Z,5.47
2017-04-16T03:19:02.776Z,5.39
2017-04-16T03:19:43.213Z,5.47
2017-04-16T03:20:23.670Z,5.39
2017-04-16T03:21:04.208Z,5.48
2017-04-16T03:21:44.661Z,5.38
2017-04-16T03:22:25.163Z,5.43
2017-04-16T03:23:05.664Z,5.47
2017-04-16T03:23:46.212Z,5.43
2017-04-16T03:24:26.727Z,5.44
2017-04-16T03:25:07.207Z,5.39
2017-04-16T03:25:47.717Z,5.36
2017-04-16T03:26:28.196Z,5.35
2017-04-16T03:27:08.655Z,5.35
2017-04-16T03:27:49.137Z,5.38
2017-04-16T03:28:29.662Z,5.38
2017-04-16T03:29:10.131Z,5.39
2017-04-16T03:29:50.611Z,5.38
2017-04-16T03:30:31.083Z,5.33
2017-04-16T03:31:11.580Z,5.46
2017-04-16T03:31:52.097Z,5.3
2017-04-16T03:32:32.525Z,5.32
2017-04-16T03:33:13.039Z,5.28
2017-04-16T03:33:53.526Z,5.32
2017-04-16T03:34:33.962Z,5.3
2017-04-16T03:35:14.446Z,5.25
2017-04-16T03:35:54.917Z,5.3
2017-04-16T03:36:35.413Z,5.3
2017-04-16T03:37:15.859Z,5.3
2017-04-16T03:37:56.342Z,5.28
2017-04-16T03:38:36.842Z,5.33
2017-04-16T03:39:17.324Z,5.2
2017-04-16T03:39:57.827Z,5.28
2017-04-16T03:40:38.310Z,5.28
2017-04-16T03:41:18.784Z,5.26
2017-04-16T03:41:59.266Z,5.2
2017-04-16T03:42:39.770Z,5.25
2017-04-16T03:43:20.216Z,5.25
2017-04-16T03:44:00.695Z,5.28
2017-04-16T03:44:41.217Z,5.2
2017-04-16T03:45:21.777Z,5.2
2017-04-16T03:46:02.268Z,5.17
2017-04-16T03:46:42.732Z,5.26
2017-04-16T03:47:23.196Z,5.28
2017-04-16T03:48:03.670Z,5.15
2017-04-16T03:48:44.126Z,5.18
2017-04-16T03:49:24.639Z,5.18
2017-04-16T03:50:05.126Z,5.17
2017-04-16T03:50:45.633Z,5.21
2017-04-16T03:51:26.098Z,5.2
2017-04-16T03:52:06.586Z,5.18
2017-04-16T03:52:47.118Z,5.11
2017-04-16T03:53:27.602Z,5.14
2017-04-16T03:54:08.088Z,5.18
2017-04-16T03:54:48.535Z,5.15
2017-04-16T03:55:29.040Z,5.17
2017-04-16T03:56:09.535Z,5.15
2017-04-16T03:56:50.001Z,5.15
2017-04-16T03:57:30.485Z,5.14
2017-04-16T03:58:10.945Z,5.14
2017-04-16T03:58:51.424Z,5.14
2017-04-16T03:59:31.944Z,5.12
2017-04-16T04:00:12.394Z,5.11
2017-04-16T04:00:52.866Z,5.05
2017-04-16T04:01:33.350Z,5.17
2017-04-16T04:02:13.834Z,5.1
2017-04-16T04:02:54.314Z,5.14
2017-04-16T04:03:34.847Z,5.12
2017-04-16T04:04:15.312Z,5.14
2017-04-16T04:04:55.782Z,5.12
2017-04-16T04:05:36.258Z,5.12
2017-04-16T04:06:16.811Z,5.12
2017-04-16T04:06:57.321Z,5.18
2017-04-16T04:07:37.780Z,5.1
2017-04-16T04:08:18.260Z,5.1
2017-04-16T04:08:58.735Z,5.15
2017-04-16T04:09:39.215Z,5.15
2017-04-16T04:10:19.655Z,5.11
2017-04-16T04:11:00.149Z,5.04
2017-04-16T04:11:40.638Z,5.05
2017-04-16T04:12:21.140Z,5.11
2017-04-16T04:13:01.602Z,5.14
2017-04-16T04:13:42.111Z,5.14
2017-04-16T04:14:22.637Z,5.04
2017-04-16T04:15:03.085Z,5.1
2017-04-16T04:15:43.579Z,5.02
2017-04-16T04:16:24.046Z,5.04
2017-04-16T04:17:04.572Z,5.08
2017-04-16T04:17:45.088Z,5.07
2017-04-16T04:18:25.632Z,5.05
2017-04-16T04:19:06.095Z,5.08
2017-04-16T04:19:46.659Z,5.15
2017-04-16T04:20:27.110Z,5.08
2017-04-16T04:21:07.608Z,5
2017-04-16T04:21:48.043Z,5.11
2017-04-16T04:22:28.508Z,5.02
2017-04-16T04:23:09.024Z,5.04
2017-04-16T04:23:49.474Z,5.1
2017-04-16T04:24:29.937Z,5.08
2017-04-16T04:25:10.438Z,5
2017-04-16T04:25:50.917Z,5.1
2017-04-16T04:26:31.414Z,5.08
2017-04-16T04:27:11.937Z,4.97
2017-04-16T04:27:52.409Z,4.99
2017-04-16T04:28:32.891Z,5.05
2017-04-16T04:29:13.369Z,4.97
2017-04-16T04:29:53.858Z,4.97
2017-04-16T04:30:34.356Z,5
2017-04-16T04:31:14.791Z,5
2017-04-16T04:31:55.292Z,4.9
2017-04-16T04:32:35.770Z,4.94
2017-04-16T04:33:16.268Z,4.92
2017-04-16T04:33:56.765Z,4.97
2017-04-16T04:34:37.231Z,4.84
2017-04-16T04:35:17.692Z,4.89
2017-04-16T04:35:58.230Z,4.87
2017-04-16T04:36:38.676Z,4.92
2017-04-16T04:37:19.138Z,4.96
2017-04-16T04:37:59.643Z,4.87
2017-04-16T04:38:40.136Z,4.9
2017-04-16T04:39:20.616Z,4.93
2017-04-16T04:40:01.105Z,4.82
2017-04-16T04:40:41.604Z,4.9
2017-04-16T04:41:22.077Z,4.9
2017-04-16T04:42:02.619Z,4.9
2017-04-16T04:42:43.144Z,4.92
2017-04-16T04:43:23.612Z,4.89
2017-04-16T04:44:04.082Z,4.87
2017-04-16T04:44:44.572Z,4.9
2017-04-16T04:45:25.026Z,4.86
2017-04-16T04:46:05.488Z,4.9
2017-04-16T04:46:46.036Z,4.82
2017-04-16T04:47:26.504Z,4.9
2017-04-16T04:48:06.976Z,4.89
2017-04-16T04:48:47.470Z,4.89
2017-04-16T04:49:27.917Z,4.87
2017-04-16T04:50:08.373Z,4.87
2017-04-16T04:50:48.863Z,4.87
2017-04-16T04:51:29.352Z,4.86
2017-04-16T04:52:09.855Z,4.86
2017-04-16T04:52:50.352Z,4.86
2017-04-16T04:53:30.834Z,4.89
2017-04-16T04:54:11.272Z,4.97
2017-04-16T04:54:51.791Z,4.9
2017-04-16T04:55:32.289Z,4.89
2017-04-16T04:56:12.782Z,4.89
2017-04-16T04:56:53.254Z,4.97
2017-04-16T04:57:33.743Z,4.9
2017-04-16T04:58:14.215Z,4.93
2017-04-16T04:58:54.716Z,4.97
2017-04-16T04:59:35.194Z,5
2017-04-16T05:00:15.675Z,5.02
2017-04-16T05:00:56.131Z,4.99
2017-04-16T05:01:36.638Z,4.94
2017-04-16T05:02:17.101Z,4.94
2017-04-16T05:02:57.561Z,4.99
2017-04-16T05:03:38.041Z,4.94
2017-04-16T05:04:18.511Z,4.94
2017-04-16T05:04:58.980Z,4.97
2017-04-16T05:05:39.459Z,5.04
2017-04-16T05:06:19.966Z,5.08
2017-04-16T05:07:00.415Z,5.1
2017-04-16T05:07:40.913Z,5.04
2017-04-16T05:08:21.381Z,5.11
2017-04-16T05:09:01.872Z,5.04
2017-04-16T05:09:42.370Z,5.02
2017-04-16T05:10:22.996Z,5.1
2017-04-16T05:11:03.497Z,5.05
2017-04-16T05:11:43.985Z,5.08
2017-04-16T05:12:24.449Z,5.14
2017-04-16T05:13:04.932Z,5.12
2017-04-16T05:13:45.424Z,5.12
2017-04-16T05:14:25.910Z,5.11
2017-04-16T05:15:07.271Z,5.14
2017-04-16T05:15:47.743Z,5.17
2017-04-16T05:16:28.242Z,5.18
2017-04-16T05:17:08.709Z,5.2
2017-04-16T05:17:49.207Z,5.12
2017-04-16T05:18:29.685Z,5.18
2017-04-16T05:19:10.209Z,5.23
2017-04-16T05:19:50.679Z,5.25
2017-04-16T05:20:31.161Z,5.2
2017-04-16T05:21:11.699Z,5.2
2017-04-16T05:21:52.191Z,5.23
2017-04-16T05:22:32.663Z,5.18
2017-04-16T05:23:13.131Z,5.15
2017-04-16T05:23:53.609Z,5.1
2017-04-16T05:24:34.094Z,5.04
2017-04-16T05:25:14.598Z,5.02
2017-04-16T05:25:55.067Z,5.1
2017-04-16T05:26:35.537Z,5.08
2017-04-16T05:27:16.048Z,5.08
2017-04-16T05:27:56.527Z,5.1
2017-04-16T05:28:37.033Z,5.1
2017-04-16T05:29:17.535Z,5.1
2017-04-16T05:29:58.021Z,5
2017-04-16T05:30:38.452Z,5.05
2017-04-16T05:31:18.946Z,5.15
2017-04-16T05:31:59.435Z,5.15
2017-04-16T05:32:39.900Z,5.21
2017-04-16T05:33:20.395Z,5.14
2017-04-16T05:34:00.856Z,5.17
2017-04-16T05:34:41.323Z,5.23
2017-04-16T05:35:21.849Z,5.21
2017-04-16T05:36:02.328Z,5.29
2017-04-16T05:36:42.794Z,5.32
2017-04-16T05:37:23.274Z,5.25
2017-04-16T05:38:03.766Z,5.25
2017-04-16T05:38:44.238Z,5.28
2017-04-16T05:39:24.696Z,5.32
2017-04-16T05:40:05.185Z,5.25
2017-04-16T05:40:45.659Z,5.28
2017-04-16T05:41:26.128Z,5.32
2017-04-16T05:42:06.681Z,5.32
2017-04-16T05:42:47.129Z,5.3
2017-04-16T05:43:27.627Z,5.3
2017-04-16T05:44:08.108Z,5.2
2017-04-16T05:44:48.578Z,5.21
2017-04-16T05:45:29.059Z,5.2
2017-04-16T05:46:09.540Z,5.18
2017-04-16T05:46:49.993Z,5.2
2017-04-16T05:47:30.461Z,5.17
2017-04-16T05:48:10.979Z,5.23
2017-04-16T05:48:51.417Z,5.21
2017-04-16T05:49:31.930Z,5.2
2017-04-16T05:50:12.407Z,5.17
2017-04-16T05:50:52.912Z,5.21
2017-04-16T05:51:33.428Z,5.2
2017-04-16T05:52:13.879Z,5.21
2017-04-16T05:52:54.366Z,5.14
2017-04-16T05:53:34.856Z,5.17
2017-04-16T05:54:15.324Z,5.15
2017-04-16T05:54:55.771Z,5.23
2017-04-16T05:55:36.258Z,5.18
2017-04-16T05:56:16.776Z,5.17
2017-04-16T05:56:57.255Z,5.28
2017-04-16T05:57:37.718Z,5.32
2017-04-16T05:58:18.221Z,5.26
2017-04-16T05:58:58.692Z,5.32
2017-04-16T05:59:39.155Z,5.39
2017-04-16T06:00:19.616Z,5.38
2017-04-16T06:01:00.090Z,5.41
2017-04-16T06:01:40.581Z,5.44
2017-04-16T06:02:21.065Z,5.41
2017-04-16T06:03:01.545Z,5.46
2017-04-16T06:03:42.040Z,5.35
2017-04-16T06:04:22.529Z,5.43
2017-04-16T06:05:03.034Z,5.41
2017-04-16T06:05:43.508Z,5.43
2017-04-16T06:06:23.975Z,5.41
2017-04-16T06:07:04.467Z,5.3
2017-04-16T06:07:44.976Z,5.3
2017-04-16T06:08:25.450Z,5.41
2017-04-16T06:09:05.892Z,5.41
2017-04-16T06:09:46.393Z,5.38
2017-04-16T06:10:26.848Z,5.39
2017-04-16T06:11:07.376Z,5.46
2017-04-16T06:11:47.862Z,5.38
2017-04-16T06:12:28.395Z,5.43
2017-04-16T06:13:08.905Z,5.33
2017-04-16T06:13:49.379Z,5.38
2017-04-16T06:14:29.868Z,5.38
2017-04-16T06:15:10.370Z,5.35
2017-04-16T06:15:50.823Z,5.35
2017-04-16T06:16:31.302Z,5.43
2017-04-16T06:17:11.832Z,5.35
2017-04-16T06:17:52.291Z,5.29
2017-04-16T06:18:32.792Z,5.28
2017-04-16T06:19:13.262Z,5.29
2017-04-16T06:19:53.744Z,5.28
2017-04-16T06:20:34.219Z,5.33
2017-04-16T06:21:14.709Z,5.36
2017-04-16T06:21:55.209Z,5.33
2017-04-16T06:22:35.670Z,5.41
2017-04-16T06:23:16.166Z,5.43
2017-04-16T06:23:56.621Z,5.43
2017-04-16T06:24:37.100Z,5.48
2017-04-16T06:25:17.640Z,5.43
2017-04-16T06:25:58.092Z,5.51
2017-04-16T06:26:38.570Z,5.47
2017-04-16T06:27:19.105Z,5.64
2017-04-16T06:27:59.590Z,5.62
2017-04-16T06:28:40.085Z,5.68
2017-04-16T06:29:20.607Z,5.76
2017-04-16T06:30:01.063Z,5.73
2017-04-16T06:30:41.575Z,5.83
2017-04-16T06:31:22.060Z,5.84
2017-04-16T06:32:02.560Z,5.94
2017-04-16T06:32:43.052Z,5.87
2017-04-16T06:33:23.513Z,5.98
2017-04-16T06:34:04.002Z,6.02
2017-04-16T06:34:44.479Z,6.05
2017-04-16T06:35:24.957Z,6.02
2017-04-16T06:36:05.465Z,6.07
2017-04-16T06:36:45.919Z,6.09
2017-04-16T06:37:26.427Z,6.12
2017-04-16T06:38:06.991Z,6.19
2017-04-16T06:38:47.475Z,6.28
2017-04-16T06:39:27.971Z,6.3
2017-04-16T06:40:08.447Z,6.28
2017-04-16T06:40:48.940Z,6.27
2017-04-16T06:41:29.396Z,6.27
2017-04-16T06:42:09.855Z,6.36
2017-04-16T06:42:50.352Z,6.41
2017-04-16T06:43:30.856Z,6.51
2017-04-16T06:44:11.325Z,6.52
2017-04-16T06:44:51.870Z,6.56
2017-04-16T06:45:32.358Z,6.59
2017-04-16T06:46:12.795Z,6.66
2017-04-16T06:46:53.303Z,6.64
2017-04-16T06:47:33.786Z,6.69
2017-04-16T06:48:14.262Z,6.62
2017-04-16T06:48:54.759Z,6.67
2017-04-16T06:49:35.269Z,6.77
2017-04-16T06:50:15.718Z,6.77
2017-04-16T06:50:56.183Z,6.77
2017-04-16T06:51:36.687Z,6.7
2017-04-16T06:52:17.231Z,6.79
2017-04-16T06:52:57.734Z,6.77
2017-04-16T06:53:38.206Z,6.69
2017-04-16T06:54:18.686Z,6.77
2017-04-16T06:54:59.180Z,6.74
2017-04-16T06:55:39.641Z,6.64
2017-04-16T06:56:20.116Z,6.79
2017-04-16T06:57:00.587Z,6.77
2017-04-16T06:57:41.059Z,6.79
2017-04-16T06:58:21.545Z,6.82
2017-04-16T06:59:02.040Z,6.81
2017-04-16T06:59:42.498Z,6.79
2017-04-16T07:00:22.995Z,6.81
2017-04-16T07:01:03.458Z,6.78
2017-04-16T07:01:43.962Z,6.82
2017-04-16T07:02:24.432Z,6.87
2017-04-16T07:03:04.909Z,7.03
2017-04-16T07:03:45.401Z,6.99
2017-04-16T07:04:25.882Z,6.92
2017-04-16T07:05:06.364Z,6.93
2017-04-16T07:05:46.909Z,7
2017-04-16T07:06:27.369Z,6.97
2017-04-16T07:07:07.826Z,7.05
2017-04-16T07:07:48.336Z,7.02
2017-04-16T07:08:28.809Z,7
2017-04-16T07:09:09.285Z,6.95
2017-04-16T07:09:49.764Z,6.85
2017-04-16T07:10:30.238Z,6.88
2017-04-16T07:11:10.762Z,6.84
2017-04-16T07:11:51.225Z,6.89
2017-04-16T07:12:31.681Z,6.92
2017-04-16T07:13:12.162Z,6.97
2017-04-16T07:13:52.631Z,6.92
2017-04-16T07:14:33.149Z,6.97
2017-04-16T07:15:13.654Z,6.81
2017-04-16T07:15:54.104Z,6.92
2017-04-16T07:16:34.589Z,6.87
2017-04-16T07:17:15.098Z,6.88
2017-04-16T07:17:55.559Z,6.96
2017-04-16T07:18:36.069Z,6.96
2017-04-16T07:19:16.534Z,7.03
2017-04-16T07:19:57.047Z,6.93
2017-04-16T07:20:37.511Z,7.11
2017-04-16T07:21:18.073Z,7.15
2017-04-16T07:21:58.551Z,7.11
2017-04-16T07:22:39.094Z,7.21
2017-04-16T07:23:19.608Z,7.31
2017-04-16T07:24:00.067Z,7.24
2017-04-16T07:24:40.536Z,7.4
2017-04-16T07:25:27.690Z,7.39
2017-04-16T07:26:08.178Z,7.4
2017-04-16T07:26:48.732Z,7.42
2017-04-16T07:27:29.210Z,7.38
2017-04-16T07:28:09.680Z,7.45
2017-04-16T07:28:50.266Z,7.36
2017-04-16T07:29:30.675Z,7.4
2017-04-16T07:30:11.161Z,7.5
2017-04-16T07:30:51.709Z,7.54
2017-04-16T07:31:32.162Z,7.67
2017-04-16T07:32:12.673Z,7.7
2017-04-16T07:34:10.945Z,7.85
2017-04-16T07:34:51.276Z,7.67
2017-04-16T07:35:31.959Z,7.67
2017-04-16T07:36:12.500Z,7.66
2017-04-16T07:36:52.972Z,7.79
2017-04-16T07:37:33.472Z,7.83
2017-04-16T07:38:13.932Z,7.8
2017-04-16T07:38:54.438Z,7.8
2017-04-16T07:39:34.928Z,7.9
2017-04-16T07:40:15.378Z,7.82
2017-04-16T07:40:55.901Z,7.8
2017-04-16T07:41:36.412Z,7.8
2017-04-16T07:42:16.912Z,7.76
2017-04-16T07:42:57.396Z,7.95
2017-04-16T07:43:37.851Z,8.01
2017-04-16T07:44:18.310Z,8
2017-04-16T07:44:58.806Z,8.03
2017-04-16T07:45:39.282Z,8.08
2017-04-16T07:46:19.747Z,7.95
2017-04-16T07:47:00.264Z,8
2017-04-16T07:47:40.728Z,8.01
2017-04-16T07:48:21.202Z,8.09
2017-04-16T07:49:01.651Z,8.12
2017-04-16T07:49:42.173Z,8.09
2017-04-16T07:50:22.685Z,8.15
2017-04-16T07:51:03.151Z,8.12
2017-04-16T07:51:43.613Z,8.26
2017-04-16T07:52:24.102Z,8.37
2017-04-16T07:53:04.585Z,8.33
2017-04-16T07:53:45.089Z,8.27
2017-04-16T07:54:25.575Z,8.38
2017-04-16T07:55:06.044Z,8.48
2017-04-16T07:55:46.528Z,8.48
2017-04-16T07:56:27.071Z,8.53
2017-04-16T07:57:07.551Z,8.28
2017-04-16T07:57:48.010Z,8.37
2017-04-16T07:58:28.471Z,8.42
2017-04-16T07:59:08.947Z,8.49
2017-04-16T07:59:49.416Z,8.63
2017-04-16T08:00:29.920Z,8.66
2017-04-16T08:01:10.381Z,8.66
2017-04-16T08:02:00.114Z,8.56
2017-04-16T08:02:40.589Z,8.61
2017-04-16T08:03:21.099Z,8.52
2017-04-16T08:04:01.564Z,8.53
2017-04-16T08:04:42.045Z,8.58
2017-04-16T08:05:22.543Z,8.55
2017-04-16T08:06:03.088Z,8.52
2017-04-16T08:06:43.557Z,8.46
2017-04-16T08:07:24.069Z,8.53
2017-04-16T08:08:04.557Z,8.45
2017-04-16T08:08:45.032Z,8.52
2017-04-16T08:09:25.527Z,8.38
2017-04-16T08:10:06.002Z,8.51
2017-04-16T08:10:46.467Z,8.45
2017-04-16T08:11:27.004Z,8.52
2017-04-16T08:12:07.511Z,8.49
2017-04-16T08:12:47.976Z,8.55
2017-04-16T08:13:28.469Z,8.52
2017-04-16T08:14:08.937Z,8.53
2017-04-16T08:14:49.422Z,8.51
2017-04-16T08:15:29.957Z,8.48
2017-04-16T08:16:10.437Z,8.45
2017-04-16T08:16:50.887Z,8.38
2017-04-16T08:17:31.386Z,8.48
2017-04-16T08:18:11.917Z,8.38
2017-04-16T08:18:52.437Z,8.53
2017-04-16T08:19:32.978Z,8.38
2017-04-16T08:20:13.418Z,8.58
2017-04-16T08:20:53.932Z,8.56
2017-04-16T08:21:34.392Z,8.52
2017-04-16T08:22:14.922Z,8.55
2017-04-16T08:22:55.357Z,8.52
2017-04-16T08:23:35.824Z,8.63
2017-04-16T08:24:16.295Z,8.63
2017-04-16T08:24:56.815Z,8.66
2017-04-16T08:25:37.376Z,8.61
2017-04-16T08:26:17.931Z,8.71
2017-04-16T08:26:58.356Z,8.67
2017-04-16T08:27:38.853Z,8.7
2017-04-16T08:28:19.338Z,8.67
2017-04-16T08:28:59.799Z,8.74
2017-04-16T08:29:40.270Z,8.82
2017-04-16T08:30:20.744Z,8.87
2017-04-16T08:31:01.234Z,8.94
2017-04-16T08:31:41.719Z,9.08
2017-04-16T08:32:22.225Z,9.13
2017-04-16T08:33:02.712Z,9.14
2017-04-16T08:33:43.149Z,9.23
2017-04-16T08:34:23.645Z,9.11
2017-04-16T08:35:04.138Z,9.23
2017-04-16T08:35:44.630Z,9.21
2017-04-16T08:36:25.188Z,9.13
2017-04-16T08:37:05.686Z,9.14
2017-04-16T08:37:46.153Z,9.11
2017-04-16T08:38:26.660Z,9.28
2017-04-16T08:39:07.153Z,9.37
2017-04-16T08:39:47.674Z,9.46
2017-04-16T08:40:28.187Z,9.48
2017-04-16T08:41:08.684Z,9.59
2017-04-16T08:41:49.182Z,9.65
2017-04-16T08:42:29.659Z,9.59
2017-04-16T08:43:10.120Z,9.79
2017-04-16T08:43:50.580Z,9.74
2017-04-16T08:44:31.077Z,9.76
2017-04-16T08:45:11.540Z,9.83
2017-04-16T08:45:52.078Z,9.73
2017-04-16T08:46:32.552Z,9.69
2017-04-16T08:47:13.083Z,9.69
2017-04-16T08:47:53.553Z,9.62
2017-04-16T08:48:34.028Z,9.65
2017-04-16T08:49:14.505Z,9.74
2017-04-16T08:49:54.975Z,9.58
2017-04-16T08:50:35.461Z,9.55
2017-04-16T08:51:15.944Z,9.4
2017-04-16T08:51:56.424Z,9.43
2017-04-16T08:52:36.954Z,9.41
2017-04-16T08:53:17.451Z,9.41
2017-04-16T08:53:57.906Z,9.47
2017-04-16T08:54:38.505Z,9.37
2017-04-16T08:55:18.974Z,9.31
2017-04-16T08:55:59.463Z,9.26
2017-04-16T08:56:39.938Z,9.21
2017-04-16T08:57:20.425Z,9.21
2017-04-16T08:58:00.913Z,9.19
2017-04-16T08:58:41.416Z,9.25
2017-04-16T08:59:22.023Z,9.41
2017-04-16T09:00:02.541Z,9.46
2017-04-16T09:00:43.036Z,9.47
2017-04-16T09:01:23.527Z,9.61
2017-04-16T09:02:04.000Z,9.62
2017-04-16T09:02:44.548Z,9.76
2017-04-16T09:03:25.053Z,9.74
2017-04-16T09:04:05.550Z,9.83
2017-04-16T09:04:46.019Z,9.94
2017-04-16T09:05:26.526Z,9.83
2017-04-16T09:06:07.088Z,9.8